ZPPP/KMG METAR and TAF weather

Enter ICAO airport designator
Station Type Date Time Source
ZPPP METAR 2019/08/25 07:00 UTC NOAA

ZPPP 250700Z 08003G08MPS 010V160 9999 SCT026 26/13 Q1019 NOSIG


Station Type Date Time Source
ZPPP Decoded METAR 2019/08/25 07:00 UTC NOAA

Station name not available
Aug 25, 2019 - 03:00 AM EDT / 2019.08.25 0700 UTC
Wind: from the E (080 degrees) at 7 MPH (6 KT) gusting to 18 MPH (16 KT) (direction variable):0
Visibility: greater than 7 mile(s):0
Sky conditions: partly cloudy
Temperature: 78 F (26 C)
Dew Point: 55 F (13 C)
Relative Humidity: 44%
Pressure (altimeter): 30.09 in. Hg (1019 hPa)
ob: ZPPP 250700Z 08003G08MPS 010V160 9999 SCT026 26/13 Q1019 NOSIG
cycle: 7

Station Type Date Time Source
ZPPP TAF 2019/08/25 06:03 UTC NOAA

TAF ZPPP 250113Z 2506/2606 06004MPS 9999 FEW026 TX26/2508Z TN14/2523Z

Example: see airport list